Time;durP1;ratioP1;P1;durP2;ratioP2;P2;SDS_P1;SDS_P2;PMS_P1;PMS_P2;Temp;Humidity;BMP_temperature;BMP_pressure;BME280_temperature;BME280_humidity;BME280_pressure;Samples;Min_cycle;Max_cycle;Signal;HPM_P1;HPM_P2
2023/03/30 00:00:13;;;;;;;;;;;;;;;18.53;100.00;97988.72;5035101;28;20144;-52
2023/03/30 00:02:42;;;;;;;;;;;;;;;18.10;100.00;97998.19;5034940;28;19988;-50
2023/03/30 00:05:08;;;;;;;;;;;;;;;18.00;100.00;98006.88;5034690;28;20103;-51
2023/03/30 00:07:33;;;;;;;;;;;;;;;18.08;100.00;98015.72;5035233;28;19917;-52
2023/03/30 00:10:01;;;;;;;;;;;;;;;18.02;100.00;98015.38;5034339;28;19983;-51
2023/03/30 00:12:27;;;;;;;;;;;;;;;18.24;100.00;97988.44;5035575;28;19970;-52
2023/03/30 00:14:52;;;;;;;;;;;;;;;18.12;100.00;97985.03;5034387;28;19924;-50
2023/03/30 00:17:17;;;;;;;;;;;;;;;17.79;100.00;97994.53;5034848;28;20558;-50
2023/03/30 00:19:42;;;;;;;;;;;;;;;17.74;100.00;97997.50;5035584;28;20008;-51
2023/03/30 00:22:08;;;;;;;;;;;;;;;18.10;100.00;97987.75;5034313;28;19917;-52
2023/03/30 00:24:36;;;;;;;;;;;;;;;17.83;100.00;97995.97;5034421;28;19981;-52
2023/03/30 00:27:02;;;;;;;;;;;;;;;18.15;100.00;97979.56;5035529;28;20063;-49
2023/03/30 00:29:27;;;;;;;;;;;;;;;17.91;100.00;97998.00;5035176;28;19959;-49
2023/03/30 00:31:52;;;;;;;;;;;;;;;18.07;100.00;97981.97;5035842;28;19962;-52
2023/03/30 00:34:17;;;;;;;;;;;;;;;17.70;100.00;98000.47;5034069;28;20963;-49
2023/03/30 00:36:45;;;;;;;;;;;;;;;17.46;100.00;98008.34;5033855;28;20289;-51
2023/03/30 00:39:10;;;;;;;;;;;;;;;17.74;100.00;97994.91;5035487;28;20018;-52
2023/03/30 00:41:36;;;;;;;;;;;;;;;17.48;100.00;97990.84;5034770;28;19935;-50
2023/03/30 00:44:01;;;;;;;;;;;;;;;17.91;100.00;97972.75;5032794;28;19917;-51
2023/03/30 00:46:28;;;;;;;;;;;;;;;17.82;100.00;97973.47;5032222;28;19928;-51
2023/03/30 00:48:56;;;;;;;;;;;;;;;16.90;100.00;97998.66;5034955;28;19917;-53
2023/03/30 00:51:22;;;;;;;;;;;;;;;16.83;100.00;97992.25;5037571;28;20016;-50
2023/03/30 00:53:48;;;;;;;;;;;;;;;17.46;100.00;97979.72;5038986;28;20368;-52
2023/03/30 00:56:14;;;;;;;;;;;;;;;17.68;100.00;97974.53;5036322;28;19931;-51
2023/03/30 00:58:40;;;;;;;;;;;;;;;17.57;100.00;97974.53;5037372;28;19927;-52
2023/03/30 01:01:06;;;;;;;;;;;;;;;17.73;100.00;97953.34;5036342;28;20003;-51
2023/03/30 01:03:33;;;;;;;;;;;;;;;16.90;100.00;97975.25;5039186;28;20431;-50
2023/03/30 01:06:00;;;;;;;;;;;;;;;17.73;100.00;97953.34;5037078;28;19924;-51
2023/03/30 01:08:26;;;;;;;;;;;;;;;17.61;100.00;97949.06;5037466;28;20421;-52
2023/03/30 01:10:51;;;;;;;;;;;;;;;17.83;100.00;97937.84;5036766;28;20146;-50
2023/03/30 01:13:16;;;;;;;;;;;;;;;17.66;100.00;97941.75;5038874;28;19923;-51
2023/03/30 01:15:48;;;;;;;;;;;;;;;17.82;100.00;97931.00;5036284;28;19971;-52
2023/03/30 01:18:18;;;;;;;;;;;;;;;17.55;100.00;97935.59;5036812;28;20297;-51
2023/03/30 01:20:54;;;;;;;;;;;;;;;17.23;100.00;97939.84;5037850;28;19916;-52
2023/03/30 01:23:26;;;;;;;;;;;;;;;17.44;100.00;97932.16;5037380;28;19998;-51
2023/03/30 01:25:58;;;;;;;;;;;;;;;17.68;100.00;97914.63;5037668;28;20007;-51
2023/03/30 01:28:42;;;;;;;;;;;;;;;17.51;100.00;97899.50;5038105;28;20308;-52
2023/03/30 01:31:13;;;;;;;;;;;;;;;17.01;100.00;97910.25;5037750;28;19932;-50
2023/03/30 01:33:39;;;;;;;;;;;;;;;17.18;100.00;97892.53;5036939;28;20354;-52
2023/03/30 01:36:27;;;;;;;;;;;;;;;17.06;100.00;97900.34;5037026;28;19952;-51
2023/03/30 01:38:56;;;;;;;;;;;;;;;17.52;100.00;97883.78;5029738;28;19966;-50
2023/03/30 01:41:36;;;;;;;;;;;;;;;17.12;100.00;97884.25;5036091;28;20042;-50
2023/03/30 01:44:01;;;;;;;;;;;;;;;17.29;100.00;97877.75;5034591;28;19944;-50
2023/03/30 01:46:29;;;;;;;;;;;;;;;17.62;100.00;97864.81;5035724;28;19964;-52
2023/03/30 01:49:14;;;;;;;;;;;;;;;17.40;100.00;97855.25;5036244;28;20166;-52
2023/03/30 01:51:41;;;;;;;;;;;;;;;17.59;100.00;97852.06;5035816;28;19932;-50
2023/03/30 01:54:08;;;;;;;;;;;;;;;17.68;100.00;97849.53;5036124;28;19924;-49
2023/03/30 01:56:40;;;;;;;;;;;;;;;17.21;100.00;97850.66;5034612;28;19935;-51
2023/03/30 01:59:17;;;;;;;;;;;;;;;16.96;100.00;97894.16;5035617;28;20278;-51
2023/03/30 02:01:42;;;;;;;;;;;;;;;17.57;100.00;97878.19;5035532;28;19912;-51
2023/03/30 02:04:09;;;;;;;;;;;;;;;17.93;100.00;97853.66;5037007;28;19917;-51
2023/03/30 02:06:39;;;;;;;;;;;;;;;17.63;100.00;97853.44;5035181;28;20016;-51
2023/03/30 02:09:14;;;;;;;;;;;;;;;17.32;100.00;97861.06;5035945;28;20067;-53
2023/03/30 02:11:40;;;;;;;;;;;;;;;17.13;100.00;97867.72;5035569;28;20372;-51
2023/03/30 02:14:05;;;;;;;;;;;;;;;17.39;100.00;97867.47;5033626;28;19917;-50
2023/03/30 02:16:36;;;;;;;;;;;;;;;17.25;100.00;97865.09;5034685;28;19924;-50
2023/03/30 02:19:03;;;;;;;;;;;;;;;17.64;100.00;97860.31;5036763;28;19924;-49
2023/03/30 02:21:28;;;;;;;;;;;;;;;17.08;100.00;97867.25;5035333;28;19947;-52
2023/03/30 02:23:54;;;;;;;;;;;;;;;17.73;100.00;97849.19;5036416;28;19916;-53
2023/03/30 02:26:21;;;;;;;;;;;;;;;17.93;100.00;97851.03;5035160;28;20511;-51
2023/03/30 02:28:47;;;;;;;;;;;;;;;17.73;100.00;97849.19;5035148;28;19968;-51
2023/03/30 02:31:12;;;;;;;;;;;;;;;17.70;100.00;97828.59;5035061;28;19948;-52
2023/03/30 02:33:52;;;;;;;;;;;;;;;17.72;100.00;97831.88;5036370;28;19958;-51
2023/03/30 02:36:17;;;;;;;;;;;;;;;17.58;100.00;97858.19;5034802;28;19921;-50
2023/03/30 02:38:49;;;;;;;;;;;;;;;17.49;100.00;97858.00;5036470;28;20095;-50
2023/03/30 02:41:30;;;;;;;;;;;;;;;17.26;100.00;97874.56;5036296;28;19921;-51
2023/03/30 02:44:04;;;;;;;;;;;;;;;17.62;100.00;97857.84;5034759;28;19917;-49
2023/03/30 02:46:37;;;;;;;;;;;;;;;17.58;100.00;97855.59;5034504;28;20114;-52
2023/03/30 02:49:12;;;;;;;;;;;;;;;17.86;100.00;97847.28;5034843;28;19928;-52
2023/03/30 02:51:39;;;;;;;;;;;;;;;18.58;100.00;97798.81;5034511;28;19967;-50
2023/03/30 02:54:24;;;;;;;;;;;;;;;18.19;100.00;97803.81;5034544;28;20132;-53
2023/03/30 02:57:05;;;;;;;;;;;;;;;17.70;100.00;97816.41;5035520;28;20392;-50
2023/03/30 02:59:33;;;;;;;;;;;;;;;17.77;100.00;97809.75;5035911;28;19971;-50
2023/03/30 03:02:24;;;;;;;;;;;;;;;17.93;100.00;97798.94;5035988;28;20019;-52
2023/03/30 03:04:50;;;;;;;;;;;;;;;17.90;100.00;97788.78;5018676;28;19920;-50
2023/03/30 03:07:15;;;;;;;;;;;;;;;17.59;100.00;97794.78;5035257;28;19954;-50
2023/03/30 03:09:41;;;;;;;;;;;;;;;17.74;100.00;97803.94;5035239;28;19924;-51
2023/03/30 03:12:06;;;;;;;;;;;;;;;17.69;100.00;97793.09;5035689;28;20378;-53
2023/03/30 03:14:31;;;;;;;;;;;;;;;17.65;100.00;97799.47;5034042;28;19916;-52
2023/03/30 03:16:56;;;;;;;;;;;;;;;18.29;100.00;97757.78;5036074;28;19917;-52
2023/03/30 03:19:22;;;;;;;;;;;;;;;18.57;100.00;97739.81;5035410;28;20718;-50
2023/03/30 03:21:47;;;;;;;;;;;;;;;18.23;100.00;97737.44;5036202;28;19986;-52
2023/03/30 03:24:16;;;;;;;;;;;;;;;17.56;100.00;97754.19;5035929;28;19923;-53
2023/03/30 03:26:41;;;;;;;;;;;;;;;18.01;100.00;97738.41;5035964;28;20464;-52
2023/03/30 03:29:06;;;;;;;;;;;;;;;18.25;100.00;97745.16;5035868;28;19916;-52
2023/03/30 03:31:32;;;;;;;;;;;;;;;17.88;100.00;97748.16;5035675;28;19932;-49
2023/03/30 03:33:57;;;;;;;;;;;;;;;18.11;100.00;97749.72;5035797;28;19935;-53
2023/03/30 03:36:22;;;;;;;;;;;;;;;18.01;100.00;97740.19;5035313;28;20045;-53
2023/03/30 03:38:47;;;;;;;;;;;;;;;18.28;100.00;97737.88;5035240;28;19960;-53
2023/03/30 03:41:13;;;;;;;;;;;;;;;17.45;100.00;97773.28;5035802;28;19929;-49
2023/03/30 03:43:38;;;;;;;;;;;;;;;18.21;100.00;97752.38;5031323;28;19916;-50
2023/03/30 03:46:03;;;;;;;;;;;;;;;18.20;100.00;97750.75;5034932;28;19924;-50
2023/03/30 03:48:28;;;;;;;;;;;;;;;18.23;100.00;97741.84;5036127;28;20022;-50
2023/03/30 03:50:55;;;;;;;;;;;;;;;18.22;100.00;97750.59;5034950;28;19917;-51
2023/03/30 03:53:21;;;;;;;;;;;;;;;18.30;100.00;97740.38;5035847;28;19921;-52
2023/03/30 03:55:46;;;;;;;;;;;;;;;17.59;100.00;97779.16;5033923;28;20463;-53
2023/03/30 03:58:11;;;;;;;;;;;;;;;17.52;100.00;97779.66;5034760;28;19928;-52
2023/03/30 04:00:36;;;;;;;;;;;;;;;18.02;100.00;97781.75;5034979;28;19921;-53
2023/03/30 04:03:03;;;;;;;;;;;;;;;18.62;100.00;97748.06;5035700;28;19921;-53
2023/03/30 04:05:29;;;;;;;;;;;;;;;18.00;100.00;97764.59;5034884;28;19921;-52
2023/03/30 04:07:55;;;;;;;;;;;;;;;18.62;100.00;97748.06;5034055;28;19924;-50
2023/03/30 04:10:21;;;;;;;;;;;;;;;18.31;100.00;97755.84;5036302;28;20590;-51
2023/03/30 04:12:46;;;;;;;;;;;;;;;18.31;100.00;97761.06;5032343;28;19929;-50
2023/03/30 04:15:11;;;;;;;;;;;;;;;17.79;100.00;97760.16;5034725;28;20024;-52
2023/03/30 04:17:37;;;;;;;;;;;;;;;18.06;100.00;97757.06;5035648;28;19921;-51
2023/03/30 04:20:03;;;;;;;;;;;;;;;17.72;100.00;97744.19;5035403;28;19969;-52
2023/03/30 04:22:31;;;;;;;;;;;;;;;18.47;100.00;97731.94;5034919;28;19927;-51
2023/03/30 04:24:58;;;;;;;;;;;;;;;18.56;100.00;97714.69;5036523;28;19952;-50
2023/03/30 04:27:24;;;;;;;;;;;;;;;18.23;100.00;97732.25;5039718;28;20103;-52
2023/03/30 04:29:50;;;;;;;;;;;;;;;18.37;100.00;97734.50;5039819;28;20308;-52
2023/03/30 04:32:19;;;;;;;;;;;;;;;18.75;100.00;97712.16;5037800;28;19921;-49
2023/03/30 04:34:45;;;;;;;;;;;;;;;18.23;100.00;97724.41;5039026;28;19928;-53
2023/03/30 04:37:10;;;;;;;;;;;;;;;17.64;100.00;97759.59;5037894;28;19925;-50
2023/03/30 04:39:35;;;;;;;;;;;;;;;17.63;100.00;97773.59;5039026;28;19920;-51
2023/03/30 04:42:05;;;;;;;;;;;;;;;17.60;100.00;97755.59;5038316;28;19917;-52
2023/03/30 04:44:30;;;;;;;;;;;;;;;18.40;100.00;97743.84;5035383;28;19994;-50
2023/03/30 04:46:55;;;;;;;;;;;;;;;18.15;100.00;97747.69;5038567;28;20298;-50
2023/03/30 04:49:21;;;;;;;;;;;;;;;18.60;100.00;97721.31;5036979;28;19923;-51
2023/03/30 04:51:46;;;;;;;;;;;;;;;18.80;100.00;97709.19;5037142;28;20370;-51
2023/03/30 04:54:11;;;;;;;;;;;;;;;19.30;100.00;97692.69;5037561;28;20361;-50
2023/03/30 04:56:36;;;;;;;;;;;;;;;18.16;100.00;97710.25;5037751;28;20333;-52
2023/03/30 04:59:02;;;;;;;;;;;;;;;18.61;100.00;97704.72;5038424;28;19924;-52
2023/03/30 05:01:27;;;;;;;;;;;;;;;18.09;100.00;97727.38;5038620;28;19916;-52
2023/03/30 05:03:52;;;;;;;;;;;;;;;17.74;100.00;97757.06;5037853;28;20366;-52
2023/03/30 05:06:17;;;;;;;;;;;;;;;17.17;100.00;97763.41;5037133;28;20416;-52
2023/03/30 05:08:43;;;;;;;;;;;;;;;17.42;100.00;97773.50;5036858;28;20380;-52
2023/03/30 05:11:08;;;;;;;;;;;;;;;17.78;100.00;97761.09;5038007;28;19920;-52
2023/03/30 05:13:33;;;;;;;;;;;;;;;18.12;100.00;97745.34;5038347;28;19916;-52
2023/03/30 05:15:58;;;;;;;;;;;;;;;17.70;100.00;97750.50;5036006;28;20504;-50
2023/03/30 05:18:24;;;;;;;;;;;;;;;17.72;100.00;97764.19;5036787;28;19924;-49
2023/03/30 05:20:49;;;;;;;;;;;;;;;17.75;100.00;97756.97;5036794;28;19913;-53
2023/03/30 05:23:14;;;;;;;;;;;;;;;18.91;100.00;97721.31;5034142;28;19923;-52
2023/03/30 05:25:47;;;;;;;;;;;;;;;18.96;100.00;97714.72;5034681;28;20381;-53
2023/03/30 05:28:12;;;;;;;;;;;;;;;19.41;100.00;97687.34;5037765;28;19920;-51
2023/03/30 05:30:38;;;;;;;;;;;;;;;19.14;100.00;97693.22;5036930;28;20154;-50
2023/03/30 05:33:04;;;;;;;;;;;;;;;19.41;100.00;97682.13;5037333;28;19917;-51
2023/03/30 05:35:29;;;;;;;;;;;;;;;19.14;100.00;97690.59;5034231;28;20430;-50
2023/03/30 05:37:54;;;;;;;;;;;;;;;18.84;100.00;97710.59;5036171;28;19925;-52
2023/03/30 05:40:20;;;;;;;;;;;;;;;18.71;100.00;97709.97;5037522;28;19921;-51
2023/03/30 05:42:45;;;;;;;;;;;;;;;18.16;100.00;97726.72;5037822;28;19927;-51
2023/03/30 05:45:10;;;;;;;;;;;;;;;18.15;100.00;97745.06;5033983;28;20040;-52
2023/03/30 05:47:35;;;;;;;;;;;;;;;18.54;100.00;97724.44;5037746;28;19956;-51
2023/03/30 05:50:01;;;;;;;;;;;;;;;18.63;100.00;97728.84;5036485;28;19921;-50
2023/03/30 05:52:26;;;;;;;;;;;;;;;18.59;100.00;97737.91;5036429;28;20290;-52
2023/03/30 05:54:52;;;;;;;;;;;;;;;18.44;100.00;97760.88;5036685;28;20583;-53
2023/03/30 05:57:17;;;;;;;;;;;;;;;18.14;100.00;97778.13;5037423;28;19971;-51
2023/03/30 05:59:43;;;;;;;;;;;;;;;18.04;100.00;97784.22;5036970;28;19916;-51
2023/03/30 06:02:09;;;;;;;;;;;;;;;18.34;100.00;97771.25;5035405;28;19932;-49
2023/03/30 06:04:34;;;;;;;;;;;;;;;17.91;100.00;97787.00;5034476;28;20409;-51
2023/03/30 06:07:00;;;;;;;;;;;;;;;17.96;100.00;97795.25;5036602;28;19928;-51
2023/03/30 06:09:25;;;;;;;;;;;;;;;18.06;100.00;97792.72;5036899;28;19921;-52
2023/03/30 06:11:51;;;;;;;;;;;;;;;17.94;100.00;97800.59;5036963;28;19963;-50
2023/03/30 06:14:16;;;;;;;;;;;;;;;18.56;100.00;97772.88;5036327;28;20389;-51
2023/03/30 06:16:41;;;;;;;;;;;;;;;17.90;100.00;97788.78;5035774;28;19991;-50
2023/03/30 06:19:07;;;;;;;;;;;;;;;18.02;100.00;97806.94;5036767;28;19921;-50
2023/03/30 06:21:32;;;;;;;;;;;;;;;18.12;100.00;97811.28;5035851;28;19917;-52
2023/03/30 06:23:57;;;;;;;;;;;;;;;18.23;100.00;97797.38;5035888;28;19951;-51
2023/03/30 06:26:23;;;;;;;;;;;;;;;18.16;100.00;97789.25;5035871;28;19985;-52
2023/03/30 06:28:48;;;;;;;;;;;;;;;18.29;100.00;97783.00;5034324;28;20085;-49
2023/03/30 06:31:14;;;;;;;;;;;;;;;16.73;100.00;97851.69;5035453;28;20011;-50
2023/03/30 06:33:39;;;;;;;;;;;;;;;16.75;100.00;97852.38;5036846;28;20012;-52
2023/03/30 06:36:07;;;;;;;;;;;;;;;16.67;100.00;97876.38;5035072;28;20405;-53
2023/03/30 06:38:33;;;;;;;;;;;;;;;16.63;100.00;97885.34;5035229;28;20519;-49
2023/03/30 06:41:02;;;;;;;;;;;;;;;17.14;100.00;97848.53;5035932;28;20032;-51
2023/03/30 06:43:27;;;;;;;;;;;;;;;17.05;100.00;97862.25;5035227;28;20279;-50
2023/03/30 06:45:53;;;;;;;;;;;;;;;17.60;100.00;97830.28;5033346;28;19920;-50
2023/03/30 06:48:19;;;;;;;;;;;;;;;17.20;100.00;97815.22;5036032;28;20230;-49
2023/03/30 06:50:45;;;;;;;;;;;;;;;16.93;100.00;97829.41;5036610;28;19912;-50
2023/03/30 06:53:10;;;;;;;;;;;;;;;16.95;100.00;97837.91;5036244;28;19935;-52
2023/03/30 06:55:35;;;;;;;;;;;;;;;17.90;100.00;97819.19;5036885;28;20393;-49
2023/03/30 06:58:01;;;;;;;;;;;;;;;17.09;100.00;97840.28;5036123;28;20364;-52
2023/03/30 07:00:26;;;;;;;;;;;;;;;17.81;100.00;97810.34;5035778;28;20567;-51
2023/03/30 07:02:52;;;;;;;;;;;;;;;17.69;100.00;97800.91;5036791;28;20681;-50
2023/03/30 07:05:17;;;;;;;;;;;;;;;17.12;100.00;97844.41;5035182;28;19921;-52
2023/03/30 07:07:43;;;;;;;;;;;;;;;17.82;100.00;97826.81;5036594;28;19923;-50
2023/03/30 07:10:11;;;;;;;;;;;;;;;17.62;100.00;97838.78;5035359;28;20016;-50
2023/03/30 07:12:36;;;;;;;;;;;;;;;17.58;100.00;97839.97;5036270;28;20046;-50
2023/03/30 07:15:02;;;;;;;;;;;;;;;16.65;100.00;97880.84;5036235;28;19955;-50
2023/03/30 07:17:28;;;;;;;;;;;;;;;18.04;100.00;97838.91;5035026;28;19931;-50
2023/03/30 07:19:53;;;;;;;;;;;;;;;17.09;100.00;97860.25;5036452;28;20419;-51
2023/03/30 07:22:18;;;;;;;;;;;;;;;16.82;100.00;97869.22;5035716;28;20011;-52
2023/03/30 07:24:44;;;;;;;;;;;;;;;18.22;100.00;97834.81;5035318;28;20409;-50
2023/03/30 07:27:09;;;;;;;;;;;;;;;18.83;100.00;97791.56;5035847;28;19982;-53
2023/03/30 07:29:35;;;;;;;;;;;;;;;19.57;100.00;97760.72;5035310;28;19917;-49
2023/03/30 07:32:01;;;;;;;;;;;;;;;19.93;100.00;97747.94;5036025;28;19932;-51
2023/03/30 07:34:27;;;;;;;;;;;;;;;19.89;100.00;97749.22;5035819;28;19923;-51
2023/03/30 07:36:52;;;;;;;;;;;;;;;19.17;100.00;97779.88;5034932;28;19917;-50
2023/03/30 07:39:17;;;;;;;;;;;;;;;18.14;100.00;97816.38;5035899;28;19920;-51
2023/03/30 07:41:43;;;;;;;;;;;;;;;19.17;100.00;97805.16;5035378;28;19927;-49
2023/03/30 07:44:08;;;;;;;;;;;;;;;17.92;100.00;97823.31;5034373;28;19921;-52
2023/03/30 07:46:33;;;;;;;;;;;;;;;18.79;100.00;97823.16;5033184;28;20201;-51
2023/03/30 07:48:58;;;;;;;;;;;;;;;17.78;100.00;97840.03;5036221;28;19917;-51
2023/03/30 07:51:24;;;;;;;;;;;;;;;19.36;100.00;97820.03;5035099;28;20212;-51
2023/03/30 07:53:49;;;;;;;;;;;;;;;18.07;100.00;97834.28;5036026;28;20362;-50
2023/03/30 07:56:15;;;;;;;;;;;;;;;18.07;100.00;97847.31;5033939;28;19917;-53
2023/03/30 07:58:40;;;;;;;;;;;;;;;17.76;100.00;97833.31;5036117;28;20374;-52
2023/03/30 08:01:05;;;;;;;;;;;;;;;18.50;100.00;97830.75;5037519;28;19913;-57
2023/03/30 08:03:30;;;;;;;;;;;;;;;18.33;100.00;97785.22;5039681;28;19931;-53
2023/03/30 08:05:58;;;;;;;;;;;;;;;17.49;100.00;97831.97;5038307;28;19913;-54
2023/03/30 08:08:23;;;;;;;;;;;;;;;18.55;100.00;97805.13;5039438;28;20035;-51
2023/03/30 08:10:48;;;;;;;;;;;;;;;17.94;100.00;97808.41;5039115;28;20007;-52
2023/03/30 08:13:14;;;;;;;;;;;;;;;17.45;100.00;97829.72;5037103;28;19971;-52
2023/03/30 08:15:39;;;;;;;;;;;;;;;17.77;100.00;97812.34;5038507;28;20011;-53
2023/03/30 08:18:06;;;;;;;;;;;;;;;17.77;100.00;97825.38;5037801;28;19917;-53
2023/03/30 08:20:35;;;;;;;;;;;;;;;17.85;100.00;97816.16;5038980;28;19916;-53
2023/03/30 08:23:01;;;;;;;;;;;;;;;18.29;100.00;97794.28;5039072;28;19921;-52
2023/03/30 08:25:26;;;;;;;;;;;;;;;17.66;100.00;97806.34;5038494;28;19939;-53
2023/03/30 08:27:51;;;;;;;;;;;;;;;18.15;100.00;97808.44;5038362;28;20031;-52
2023/03/30 08:30:16;;;;;;;;;;;;;;;17.91;100.00;97826.06;5039070;28;19916;-54
2023/03/30 08:32:42;;;;;;;;;;;;;;;17.91;100.00;97829.50;5036983;28;19921;-52
2023/03/30 08:35:07;;;;;;;;;;;;;;;17.59;100.00;97833.84;5039587;28;20283;-55
2023/03/30 08:37:32;;;;;;;;;;;;;;;17.43;100.00;97835.03;5038995;28;19967;-52
2023/03/30 08:39:58;;;;;;;;;;;;;;;18.80;100.00;97809.13;5038855;28;20370;-54
2023/03/30 08:42:39;;;;;;;;;;;;;;;18.04;100.00;97818.94;5039309;28;20293;-52
2023/03/30 08:45:07;;;;;;;;;;;;;;;17.55;100.00;97854.88;5037743;28;19932;-52
2023/03/30 08:47:34;;;;;;;;;;;;;;;16.98;100.00;97904.47;5037820;28;19975;-53
2023/03/30 08:50:17;;;;;;;;;;;;;;;17.25;100.00;97911.94;5037349;28;20199;-54
2023/03/30 08:52:43;;;;;;;;;;;;;;;17.01;100.00;97912.84;5032921;28;19925;-52
2023/03/30 08:55:18;;;;;;;;;;;;;;;16.94;100.00;97927.25;5030266;28;19921;-54
2023/03/30 08:57:50;;;;;;;;;;;;;;;16.66;100.00;97957.88;5034901;28;20290;-53
2023/03/30 09:00:23;;;;;;;;;;;;;;;16.60;100.00;97973.09;5036148;28;19917;-53
2023/03/30 09:02:49;;;;;;;;;;;;;;;17.59;100.00;97977.84;5037539;28;19916;-53
2023/03/30 09:05:17;;;;;;;;;;;;;;;16.28;100.00;97987.50;5035893;28;19928;-52
2023/03/30 09:07:43;;;;;;;;;;;;;;;16.97;100.00;98004.22;5037287;28;19920;-53
2023/03/30 09:10:11;;;;;;;;;;;;;;;15.70;100.00;98046.06;5038138;28;19917;-50
2023/03/30 09:12:36;;;;;;;;;;;;;;;15.87;100.00;98066.56;5037234;28;20066;-50
2023/03/30 09:15:07;;;;;;;;;;;;;;;14.98;100.00;98134.66;5036850;28;20710;-50
2023/03/30 09:17:38;;;;;;;;;;;;;;;15.84;100.00;98169.78;5039716;28;19990;-51
2023/03/30 09:20:08;;;;;;;;;;;;;;;14.84;100.00;98259.13;5037500;28;20020;-48
2023/03/30 09:22:37;;;;;;;;;;;;;;;16.26;100.00;98324.53;5038549;28;19975;-48
2023/03/30 09:25:10;;;;;;;;;;;;;;;14.92;100.00;98367.56;5036774;28;19932;-47
2023/03/30 09:27:48;;;;;;;;;;;;;;;15.45;100.00;98488.84;5038561;28;19990;-49
2023/03/30 09:30:20;;;;;;;;;;;;;;;14.59;100.00;98558.63;5036019;28;20115;-49
2023/03/30 09:33:09;;;;;;;;;;;;;;;15.28;100.00;98681.00;5038434;28;20023;-50
2023/03/30 09:35:36;;;;;;;;;;;;;;;15.20;100.00;98693.56;5027144;28;20011;-48
2023/03/30 09:38:02;;;;;;;;;;;;;;;15.11;100.00;98717.41;5037330;28;19925;-48
2023/03/30 09:40:51;;;;;;;;;;;;;;;15.65;100.00;98743.78;5038876;28;19928;-48
2023/03/30 09:43:24;;;;;;;;;;;;;;;15.32;100.00;98734.38;5029567;28;20386;-51
2023/03/30 09:45:51;;;;;;;;;;;;;;;15.08;100.00;98735.75;5035055;28;19963;-48
2023/03/30 09:48:16;;;;;;;;;;;;;;;15.51;100.00;98787.84;5037698;28;19924;-50
2023/03/30 09:50:44;;;;;;;;;;;;;;;15.41;100.00;98816.91;5034750;28;19925;-48
2023/03/30 09:53:25;;;;;;;;;;;;;;;15.70;100.00;98830.03;5036589;28;19927;-48
2023/03/30 09:56:10;;;;;;;;;;;;;;;15.20;100.00;98811.13;5034845;28;20274;-47
2023/03/30 09:58:35;;;;;;;;;;;;;;;16.11;100.00;98813.91;5036303;28;20436;-48
2023/03/30 10:01:15;;;;;;;;;;;;;;;16.23;100.00;98787.19;5035489;28;19921;-47
2023/03/30 10:03:41;;;;;;;;;;;;;;;17.02;100.00;98762.53;5035800;28;20315;-48
2023/03/30 10:06:07;;;;;;;;;;;;;;;15.92;100.00;98704.19;5035483;28;19927;-48
2023/03/30 10:08:51;;;;;;;;;;;;;;;17.83;100.00;98786.97;5036645;28;20487;-49
2023/03/30 10:11:18;;;;;;;;;;;;;;;16.96;100.00;98669.28;5038275;28;20031;-50
2023/03/30 10:13:43;;;;;;;;;;;;;;;17.56;100.00;98605.50;5035989;28;20386;-48
2023/03/30 10:16:18;;;;;;;;;;;;;;;17.85;100.00;98478.53;5032193;28;19984;-49
2023/03/30 10:18:43;;;;;;;;;;;;;;;17.43;100.00;98493.56;5036988;28;20440;-48
2023/03/30 10:21:11;;;;;;;;;;;;;;;16.78;100.00;98418.16;5036212;28;19995;-48
2023/03/30 10:23:41;;;;;;;;;;;;;;;16.42;100.00;98425.69;5035049;28;19921;-49
2023/03/30 10:26:12;;;;;;;;;;;;;;;16.95;100.00;98365.06;5029212;28;19920;-49
2023/03/30 10:28:37;;;;;;;;;;;;;;;16.76;100.00;98368.03;5029921;28;19927;-49
2023/03/30 10:31:03;;;;;;;;;;;;;;;17.85;100.00;98379.56;5029389;28;19920;-49
2023/03/30 10:33:29;;;;;;;;;;;;;;;17.70;100.00;98315.53;5036922;28;19927;-51
2023/03/30 10:35:55;;;;;;;;;;;;;;;17.94;100.00;98305.13;5034878;28;20358;-51
2023/03/30 10:38:20;;;;;;;;;;;;;;;17.37;100.00;98311.78;5035091;28;19963;-49
2023/03/30 10:40:46;;;;;;;;;;;;;;;17.12;100.00;98342.13;5036269;28;20106;-50
2023/03/30 10:43:12;;;;;;;;;;;;;;;16.08;100.00;98341.34;5034754;28;20500;-50
2023/03/30 10:45:47;;;;;;;;;;;;;;;13.63;100.00;98463.69;5032588;28;19928;-51
2023/03/30 10:48:31;;;;;;;;;;;;;;;14.50;100.00;98686.06;5036909;28;20278;-49
2023/03/30 10:50:59;;;;;;;;;;;;;;;15.16;100.00;98782.84;5036129;28;19917;-50
2023/03/30 10:53:43;;;;;;;;;;;;;;;14.62;100.00;98778.75;5035983;28;20125;-50
2023/03/30 10:56:12;;;;;;;;;;;;;;;14.97;100.00;98835.69;5036380;28;19985;-50
2023/03/30 10:58:48;;;;;;;;;;;;;;;15.42;100.00;98873.09;5035900;28;19921;-51
2023/03/30 11:01:33;;;;;;;;;;;;;;;14.49;100.00;98833.84;5035627;28;19928;-48
2023/03/30 11:04:00;;;;;;;;;;;;;;;14.97;100.00;98866.81;5035002;28;19989;-48
2023/03/30 11:06:30;;;;;;;;;;;;;;;15.53;100.00;98802.44;5034452;28;19916;-48
2023/03/30 11:08:56;;;;;;;;;;;;;;;15.60;100.00;98668.78;5035592;28;19972;-49
2023/03/30 11:11:22;;;;;;;;;;;;;;;15.44;100.00;98565.03;5034938;28;20019;-49
2023/03/30 11:13:49;;;;;;;;;;;;;;;15.28;100.00;98512.38;5034133;28;20013;-48
2023/03/30 11:16:19;;;;;;;;;;;;;;;15.50;100.00;98485.13;5032980;28;20117;-48
2023/03/30 11:18:50;;;;;;;;;;;;;;;15.41;100.00;98435.44;5034386;28;20429;-47
2023/03/30 11:21:34;;;;;;;;;;;;;;;15.83;100.00;98418.19;5036351;28;20003;-48
2023/03/30 11:24:06;;;;;;;;;;;;;;;15.98;100.00;98393.00;5036373;28;20129;-48
2023/03/30 11:26:36;;;;;;;;;;;;;;;16.78;100.00;98337.56;5035322;28;19928;-49
2023/03/30 11:29:13;;;;;;;;;;;;;;;16.24;100.00;98297.81;5035988;28;19916;-47
2023/03/30 11:31:40;;;;;;;;;;;;;;;16.47;100.00;98269.47;5035771;28;19955;-51
2023/03/30 11:34:06;;;;;;;;;;;;;;;15.61;100.00;98293.25;5035461;28;19928;-49
2023/03/30 11:36:39;;;;;;;;;;;;;;;17.13;100.00;98330.78;5036545;28;19913;-47
2023/03/30 11:39:07;;;;;;;;;;;;;;;16.52;100.00;98288.16;5035449;28;19921;-48
2023/03/30 11:41:37;;;;;;;;;;;;;;;17.37;100.00;98279.72;5036173;28;19916;-48
2023/03/30 11:44:02;;;;;;;;;;;;;;;17.43;100.00;98279.31;5033163;28;19952;-48
2023/03/30 11:46:49;;;;;;;;;;;;;;;17.42;100.00;98223.78;5036901;28;19917;-48
2023/03/30 11:49:17;;;;;;;;;;;;;;;16.93;100.00;98229.91;5035293;28;19916;-49
2023/03/30 11:51:53;;;;;;;;;;;;;;;17.03;100.00;98181.47;5035963;28;19916;-49
2023/03/30 11:54:24;;;;;;;;;;;;;;;15.80;100.00;98150.97;5032261;28;20676;-48
2023/03/30 11:56:50;;;;;;;;;;;;;;;16.23;100.00;98158.44;5034599;28;19928;-50
2023/03/30 11:59:16;;;;;;;;;;;;;;;17.02;100.00;98140.81;5034899;28;20075;-51
2023/03/30 12:01:44;;;;;;;;;;;;;;;17.45;100.00;98083.03;5035565;28;20362;-49
2023/03/30 12:04:15;;;;;;;;;;;;;;;17.56;100.00;98121.25;5035148;28;19920;-51
2023/03/30 12:06:43;;;;;;;;;;;;;;;18.19;100.00;98075.63;5033471;28;20459;-50
2023/03/30 12:09:25;;;;;;;;;;;;;;;16.40;100.00;98058.56;5035247;28;20059;-51
2023/03/30 12:11:51;;;;;;;;;;;;;;;16.99;100.00;98052.63;5034187;28;20108;-53
2023/03/30 12:14:25;;;;;;;;;;;;;;;17.16;100.00;98025.34;5033005;28;20004;-54
2023/03/30 12:16:50;;;;;;;;;;;;;;;16.56;100.00;98034.91;5034270;28;20011;-52
2023/03/30 12:19:18;;;;;;;;;;;;;;;17.66;100.00;98045.91;5033964;28;20042;-51
2023/03/30 12:21:43;;;;;;;;;;;;;;;16.18;100.00;98093.00;5032387;28;19921;-50
2023/03/30 12:24:20;;;;;;;;;;;;;;;16.77;100.00;98083.69;5035300;28;19917;-52
2023/03/30 12:26:47;;;;;;;;;;;;;;;17.30;100.00;98086.75;5034777;28;19917;-52
2023/03/30 12:29:13;;;;;;;;;;;;;;;16.70;100.00;98037.31;5035003;28;19913;-53
2023/03/30 12:31:54;;;;;;;;;;;;;;;16.63;100.00;98059.50;5035322;28;20008;-54
2023/03/30 12:34:20;;;;;;;;;;;;;;;16.76;100.00;98066.41;5035796;28;19913;-51
2023/03/30 12:36:47;;;;;;;;;;;;;;;16.73;100.00;98042.28;5033518;28;19920;-52
2023/03/30 12:39:43;;;;;;;;;;;;;;;17.45;100.00;98051.78;5034509;28;19943;-52